createdAt,value
2019-04-07T00:02:16.377Z,11.40
2019-04-07T00:04:46.678Z,11.30
2019-04-07T00:07:17.267Z,11.30
2019-04-07T00:09:46.648Z,11.40
2019-04-07T00:12:16.317Z,11.50
2019-04-07T00:14:45.773Z,11.40
2019-04-07T00:17:15.085Z,11.40
2019-04-07T00:19:44.754Z,11.40
2019-04-07T00:22:14.175Z,11.30
2019-04-07T00:24:44.035Z,11.30
2019-04-07T00:27:13.436Z,11.40
2019-04-07T00:29:42.758Z,11.30
2019-04-07T00:32:12.084Z,11.30
2019-04-07T00:34:41.526Z,11.10
2019-04-07T00:37:10.882Z,11.00
2019-04-07T00:39:40.275Z,11.00
2019-04-07T00:42:09.586Z,11.00
2019-04-07T00:44:39.150Z,11.00
2019-04-07T00:47:08.459Z,11.00
2019-04-07T00:49:37.756Z,10.80
2019-04-07T00:52:09.411Z,10.80
2019-04-07T00:54:39.138Z,10.80
2019-04-07T00:57:08.607Z,10.80
2019-04-07T00:59:38.579Z,10.70
2019-04-07T01:02:08.003Z,10.60
2019-04-07T01:04:37.311Z,10.60
2019-04-07T01:07:06.632Z,10.60
2019-04-07T01:09:35.952Z,10.70
2019-04-07T01:12:06.035Z,10.70
2019-04-07T01:14:35.562Z,10.80
2019-04-07T01:17:04.867Z,10.70
2019-04-07T01:19:34.439Z,10.60
2019-04-07T01:22:03.926Z,10.60
2019-04-07T01:24:34.425Z,10.60
2019-04-07T01:27:03.990Z,10.60
2019-04-07T01:29:34.155Z,10.60
2019-04-07T01:32:03.802Z,10.60
2019-04-07T01:34:33.197Z,10.60
2019-04-07T01:37:02.495Z,10.40
2019-04-07T01:39:32.221Z,10.40
2019-04-07T01:42:03.865Z,10.30
2019-04-07T01:44:35.543Z,10.30
2019-04-07T01:47:12.534Z,10.30
2019-04-07T01:49:49.260Z,10.30
2019-04-07T01:52:23.644Z,10.20
2019-04-07T01:55:00.367Z,10.20
2019-04-07T01:57:31.392Z,10.20
2019-04-07T02:00:02.985Z,10.00
2019-04-07T02:02:34.186Z,10.00
2019-04-07T02:05:06.753Z,10.00
2019-04-07T02:07:54.401Z,10.00
2019-04-07T02:10:34.325Z,10.10
2019-04-07T02:13:05.899Z,10.10
2019-04-07T02:15:37.215Z,10.10
2019-04-07T02:18:14.756Z,10.10
2019-04-07T02:20:55.718Z,10.00
2019-04-07T02:23:45.073Z,10.00
2019-04-07T02:26:25.342Z,9.90
2019-04-07T02:29:11.685Z,9.90
2019-04-07T02:31:42.678Z,10.00
2019-04-07T02:34:17.748Z,10.00
2019-04-07T02:37:04.991Z,10.00
2019-04-07T02:39:42.272Z,10.00
2019-04-07T02:42:15.920Z,9.80
2019-04-07T02:45:03.735Z,9.90
2019-04-07T02:47:44.340Z,9.90
2019-04-07T02:50:26.231Z,9.80
2019-04-07T02:53:03.324Z,9.70
2019-04-07T02:55:35.489Z,9.70
2019-04-07T02:58:18.139Z,9.70
2019-04-07T03:00:52.302Z,9.70
2019-04-07T03:03:23.329Z,9.60
2019-04-07T03:06:03.602Z,9.70
2019-04-07T03:08:35.596Z,9.70
2019-04-07T03:11:12.448Z,9.80
2019-04-07T03:13:52.236Z,9.70
2019-04-07T03:16:40.505Z,9.70
2019-04-07T03:19:26.422Z,9.70
2019-04-07T03:22:00.964Z,9.70
2019-04-07T03:24:32.445Z,9.80
2019-04-07T03:27:04.336Z,9.80
2019-04-07T03:29:41.748Z,9.90
2019-04-07T03:32:18.740Z,9.80
2019-04-07T03:35:06.197Z,9.70
2019-04-07T03:37:43.392Z,9.70
2019-04-07T03:40:22.284Z,9.70
2019-04-07T03:43:05.278Z,9.60
2019-04-07T03:45:52.584Z,9.60
2019-04-07T03:48:30.393Z,9.60
2019-04-07T03:51:18.949Z,9.70
2019-04-07T03:54:05.171Z,9.50
2019-04-07T03:56:37.194Z,9.30
2019-04-07T03:59:24.961Z,9.20
2019-04-07T04:02:12.295Z,9.30
2019-04-07T04:04:46.445Z,9.40
2019-04-07T04:07:26.626Z,9.40
2019-04-07T04:09:50.054Z,9.50
2019-04-07T04:12:37.416Z,9.50
2019-04-07T04:15:20.067Z,9.60
2019-04-07T04:17:49.707Z,9.80
2019-04-07T04:20:19.748Z,9.80
2019-04-07T04:22:49.108Z,9.80
2019-04-07T04:25:19.137Z,9.80
2019-04-07T04:27:48.731Z,9.90
2019-04-07T04:30:24.054Z,10.00
2019-04-07T04:32:54.015Z,10.00
2019-04-07T04:35:24.553Z,10.00
2019-04-07T04:37:55.512Z,10.00
2019-04-07T04:40:32.481Z,10.10
2019-04-07T04:43:06.057Z,10.00
2019-04-07T04:45:36.262Z,10.00
2019-04-07T04:48:06.829Z,9.90
2019-04-07T04:50:37.252Z,10.00
2019-04-07T04:53:06.800Z,10.10
2019-04-07T04:55:37.018Z,10.00
2019-04-07T04:58:07.268Z,10.00
2019-04-07T05:00:36.617Z,10.00
2019-04-07T05:03:05.919Z,10.10
2019-04-07T05:05:35.634Z,10.00
2019-04-07T05:08:05.573Z,10.10
2019-04-07T05:10:35.918Z,10.10
2019-04-07T05:13:05.234Z,10.20
2019-04-07T05:15:35.110Z,10.30
2019-04-07T05:18:05.218Z,10.30
2019-04-07T05:20:40.858Z,10.40
2019-04-07T05:23:11.352Z,10.50
2019-04-07T05:25:40.767Z,10.40
2019-04-07T05:28:10.114Z,10.50
2019-04-07T05:30:39.517Z,10.50
2019-04-07T05:33:08.908Z,10.40
2019-04-07T05:35:38.257Z,10.40
2019-04-07T05:38:08.351Z,10.40
2019-04-07T05:40:38.003Z,10.50
2019-04-07T05:43:07.310Z,10.60
2019-04-07T05:45:37.610Z,10.70
2019-04-07T05:48:08.176Z,10.70
2019-04-07T05:50:37.600Z,10.80
2019-04-07T05:53:12.136Z,10.90
2019-04-07T05:55:38.132Z,11.00
2019-04-07T05:58:08.469Z,11.10
2019-04-07T06:00:39.122Z,11.30
2019-04-07T06:03:09.386Z,11.40
2019-04-07T06:05:38.842Z,11.30
2019-04-07T06:08:23.642Z,11.10
2019-04-07T06:10:39.161Z,11.10
2019-04-07T06:13:11.271Z,11.20
2019-04-07T06:15:40.289Z,11.20
2019-04-07T06:18:09.699Z,11.30
2019-04-07T06:20:39.223Z,11.30
2019-04-07T06:23:08.669Z,11.30
2019-04-07T06:25:41.784Z,11.30
2019-04-07T06:28:09.655Z,11.60
2019-04-07T06:30:50.643Z,11.80
2019-04-07T06:33:19.999Z,12.00
2019-04-07T06:35:49.920Z,12.10
2019-04-07T06:38:30.303Z,12.30
2019-04-07T06:40:54.237Z,12.50
2019-04-07T06:43:23.793Z,12.50
2019-04-07T06:45:55.031Z,12.60
2019-04-07T06:48:24.453Z,12.60
2019-04-07T06:51:01.766Z,12.60
2019-04-07T06:53:36.883Z,12.90
2019-04-07T06:56:07.822Z,13.10
2019-04-07T06:58:41.403Z,13.00
2019-04-07T07:01:17.150Z,12.80
2019-04-07T07:03:51.476Z,12.90
2019-04-07T07:06:39.462Z,13.20
2019-04-07T07:09:27.814Z,13.20
2019-04-07T07:12:20.616Z,13.10
2019-04-07T07:15:00.824Z,12.90
2019-04-07T07:17:38.736Z,13.10
2019-04-07T07:20:15.808Z,13.40
2019-04-07T07:22:49.899Z,13.20
2019-04-07T07:25:20.443Z,13.20
2019-04-07T07:27:49.844Z,13.60
2019-04-07T07:30:20.132Z,13.60
2019-04-07T07:32:50.587Z,13.60
2019-04-07T07:35:20.036Z,13.40
2019-04-07T07:37:49.965Z,13.50
2019-04-07T07:40:19.426Z,13.70
2019-04-07T07:42:50.701Z,13.60
2019-04-07T07:45:42.992Z,13.80
2019-04-07T07:48:10.881Z,14.00
2019-04-07T07:50:40.770Z,14.20
2019-04-07T07:53:10.516Z,14.50
2019-04-07T07:55:40.219Z,14.30
2019-04-07T07:58:09.642Z,14.40
2019-04-07T08:00:42.119Z,14.40
2019-04-07T08:03:10.289Z,14.40
2019-04-07T08:05:40.964Z,14.30
2019-04-07T08:08:10.371Z,13.80
2019-04-07T08:10:40.663Z,13.80
2019-04-07T08:13:10.273Z,13.80
2019-04-07T08:15:40.435Z,13.90
2019-04-07T08:18:09.849Z,14.10
2019-04-07T08:20:40.957Z,13.80
2019-04-07T08:23:12.122Z,14.00
2019-04-07T08:25:41.205Z,14.00
2019-04-07T08:28:10.660Z,14.10
2019-04-07T08:30:43.925Z,14.50
2019-04-07T08:33:11.048Z,14.60
2019-04-07T08:35:40.787Z,14.60
2019-04-07T08:38:10.993Z,14.60
2019-04-07T08:40:40.585Z,14.30
2019-04-07T08:43:09.876Z,14.10
2019-04-07T08:45:39.851Z,14.10
2019-04-07T08:48:09.271Z,14.40
2019-04-07T08:50:38.605Z,14.80
2019-04-07T08:53:10.310Z,15.00
2019-04-07T08:55:39.184Z,14.90
2019-04-07T08:58:08.515Z,15.00
2019-04-07T09:00:48.204Z,15.20
2019-04-07T09:03:17.094Z,15.00
2019-04-07T09:05:46.776Z,14.90
2019-04-07T09:08:17.231Z,15.20
2019-04-07T09:10:54.949Z,15.50
2019-04-07T09:13:25.086Z,15.80
2019-04-07T09:16:08.440Z,16.00
2019-04-07T09:18:52.913Z,16.00
2019-04-07T09:21:20.313Z,16.10
2019-04-07T09:24:07.169Z,16.40
2019-04-07T09:26:47.313Z,16.00
2019-04-07T09:29:31.340Z,16.10
2019-04-07T09:32:02.370Z,16.50
2019-04-07T09:34:36.274Z,16.80
2019-04-07T09:37:12.962Z,16.70
2019-04-07T09:40:00.509Z,16.90
2019-04-07T09:42:29.075Z,17.00
2019-04-07T09:45:00.061Z,16.40
2019-04-07T09:47:33.740Z,16.20
2019-04-07T09:50:21.822Z,16.50
2019-04-07T09:53:09.973Z,16.80
2019-04-07T09:55:41.146Z,16.70
2019-04-07T09:58:21.408Z,16.80
2019-04-07T10:00:58.535Z,16.60
2019-04-07T10:03:41.579Z,16.40
2019-04-07T10:06:15.562Z,16.50
2019-04-07T10:09:06.674Z,17.00
2019-04-07T10:11:47.361Z,17.50
2019-04-07T10:14:30.755Z,17.60
2019-04-07T10:17:19.976Z,18.20
2019-04-07T10:20:00.010Z,18.50
2019-04-07T10:22:34.092Z,18.70
2019-04-07T10:25:25.169Z,18.90
2019-04-07T10:28:22.383Z,19.30
2019-04-07T10:31:03.416Z,19.50
2019-04-07T10:33:43.810Z,19.80
2019-04-07T10:36:20.660Z,19.80
2019-04-07T10:39:07.343Z,20.20
2019-04-07T10:41:41.390Z,19.90
2019-04-07T10:44:18.145Z,19.90
2019-04-07T10:47:07.275Z,19.80
2019-04-07T10:49:40.875Z,19.80
2019-04-07T10:52:11.868Z,20.20
2019-04-07T10:55:01.201Z,19.80
2019-04-07T10:57:32.289Z,19.70
2019-04-07T11:00:09.226Z,20.30
2019-04-07T11:02:58.544Z,20.40
2019-04-07T11:05:41.551Z,20.40
2019-04-07T11:08:28.868Z,20.80
2019-04-07T11:11:15.682Z,20.90
2019-04-07T11:14:01.948Z,21.70
2019-04-07T11:16:36.585Z,22.40
2019-04-07T11:19:07.803Z,21.50
2019-04-07T11:21:39.321Z,21.50
2019-04-07T11:24:25.249Z,21.40
2019-04-07T11:27:02.967Z,21.90
2019-04-07T11:29:39.784Z,22.00
2019-04-07T11:32:26.128Z,21.40
2019-04-07T11:35:03.847Z,21.20
2019-04-07T11:37:51.767Z,20.80
2019-04-07T11:40:22.790Z,21.20
2019-04-07T11:43:10.708Z,21.60
2019-04-07T11:46:02.249Z,21.70
2019-04-07T11:48:33.559Z,22.10
2019-04-07T11:51:05.207Z,22.40
2019-04-07T11:53:39.604Z,22.70
2019-04-07T11:56:11.464Z,22.90
2019-04-07T11:58:43.056Z,23.10
2019-04-07T12:01:14.814Z,23.10
2019-04-07T12:03:47.455Z,23.30
2019-04-07T12:06:30.319Z,24.00
2019-04-07T12:09:13.389Z,24.40
2019-04-07T12:11:53.789Z,25.00
2019-04-07T12:14:30.768Z,25.30
2019-04-07T12:17:05.093Z,24.60
2019-04-07T12:19:37.145Z,24.30
2019-04-07T12:22:27.112Z,24.20
2019-04-07T12:25:05.488Z,24.20
2019-04-07T12:27:43.894Z,24.20
2019-04-07T12:30:16.480Z,23.90
2019-04-07T12:33:07.889Z,23.40
2019-04-07T12:35:41.586Z,22.90
2019-04-07T12:38:13.505Z,22.80
2019-04-07T12:40:45.244Z,23.00
2019-04-07T12:43:31.457Z,23.10
2019-04-07T12:46:05.842Z,22.90
2019-04-07T12:48:53.234Z,23.00
2019-04-07T12:51:27.583Z,23.00
2019-04-07T12:54:11.737Z,22.90
2019-04-07T12:57:02.515Z,22.30
2019-04-07T12:59:51.425Z,22.30
2019-04-07T13:05:28.559Z,22.40
2019-04-07T13:08:16.837Z,22.10
2019-04-07T13:10:57.196Z,22.10
2019-04-07T13:13:34.211Z,22.20
2019-04-07T13:16:10.114Z,22.20
2019-04-07T13:18:44.114Z,22.30
2019-04-07T13:21:15.524Z,22.90
2019-04-07T13:24:07.052Z,23.30
2019-04-07T13:26:37.438Z,23.90
2019-04-07T13:29:11.728Z,23.80
2019-04-07T13:31:59.102Z,23.60
2019-04-07T13:34:35.871Z,23.10
2019-04-07T13:37:20.016Z,23.10
2019-04-07T13:39:51.114Z,23.00
2019-04-07T13:42:24.873Z,23.50
2019-04-07T13:45:10.175Z,24.00
2019-04-07T13:47:44.859Z,24.60
2019-04-07T13:50:16.453Z,25.00
2019-04-07T13:53:03.011Z,25.10
2019-04-07T13:55:49.854Z,25.00
2019-04-07T13:58:20.840Z,25.10
2019-04-07T14:00:58.381Z,24.70
2019-04-07T14:03:30.442Z,24.50
2019-04-07T14:06:14.306Z,24.50
2019-04-07T14:09:00.037Z,24.30
2019-04-07T14:11:34.002Z,23.80
2019-04-07T14:14:18.013Z,23.40
2019-04-07T14:16:51.743Z,22.80
2019-04-07T14:19:35.398Z,22.50
2019-04-07T14:22:10.103Z,22.60
2019-04-07T14:24:41.484Z,22.80
2019-04-07T14:27:18.664Z,23.10
2019-04-07T14:29:52.497Z,22.70
2019-04-07T14:32:26.286Z,22.60
2019-04-07T14:35:14.074Z,23.00
2019-04-07T14:37:46.242Z,23.20
2019-04-07T14:40:26.713Z,23.20
2019-04-07T14:42:58.219Z,22.60
2019-04-07T14:45:47.574Z,22.50
2019-04-07T14:48:33.562Z,22.10
2019-04-07T14:51:07.375Z,21.90
2019-04-07T14:53:38.278Z,22.00
2019-04-07T14:56:09.934Z,22.00
2019-04-07T14:58:48.507Z,22.20
2019-04-07T15:01:20.244Z,22.10
2019-04-07T15:03:50.079Z,21.90
2019-04-07T15:06:19.405Z,21.60
2019-04-07T15:09:08.643Z,21.80
2019-04-07T15:11:39.738Z,21.60
2019-04-07T15:14:11.272Z,21.50
2019-04-07T15:16:40.017Z,21.20
2019-04-07T15:19:09.638Z,21.40
2019-04-07T15:21:40.144Z,21.60
2019-04-07T15:24:11.247Z,21.70
2019-04-07T15:26:40.622Z,21.70
2019-04-07T15:29:10.842Z,21.70
2019-04-07T15:31:40.633Z,21.70
2019-04-07T15:34:11.935Z,21.60
2019-04-07T15:36:41.463Z,21.10
2019-04-07T15:39:11.017Z,21.30
2019-04-07T15:41:42.564Z,21.50
2019-04-07T15:44:14.078Z,21.60
2019-04-07T15:46:42.680Z,21.50
2019-04-07T15:49:12.693Z,21.20
2019-04-07T15:51:42.056Z,21.00
2019-04-07T15:54:11.348Z,20.90
2019-04-07T15:56:41.286Z,21.00
2019-04-07T15:59:10.587Z,21.20
2019-04-07T16:01:40.397Z,21.30
2019-04-07T16:04:09.820Z,20.90
2019-04-07T16:06:39.100Z,20.80
2019-04-07T16:09:13.933Z,21.00
2019-04-07T16:11:42.356Z,20.50
2019-04-07T16:14:13.587Z,20.30
2019-04-07T16:16:42.801Z,20.40
2019-04-07T16:19:17.629Z,20.40
2019-04-07T16:21:44.051Z,20.50
2019-04-07T16:24:13.633Z,20.70
2019-04-07T16:26:43.279Z,20.80
2019-04-07T16:29:15.485Z,20.80
2019-04-07T16:31:43.644Z,21.00
2019-04-07T16:34:13.209Z,20.90
2019-04-07T16:36:43.310Z,21.00
2019-04-07T16:39:13.542Z,21.00
2019-04-07T16:41:45.349Z,21.00
2019-04-07T16:44:13.956Z,21.00
2019-04-07T16:46:43.727Z,21.00
2019-04-07T16:49:13.719Z,21.00
2019-04-07T16:51:44.786Z,21.00
2019-04-07T16:54:14.422Z,21.00
2019-04-07T16:56:45.500Z,21.00
2019-04-07T16:59:15.574Z,21.00
2019-04-07T17:01:45.569Z,20.90
2019-04-07T17:04:15.840Z,20.90
2019-04-07T17:06:45.294Z,20.90
2019-04-07T17:09:23.045Z,21.00
2019-04-07T17:11:50.497Z,20.80
2019-04-07T17:14:20.041Z,20.20
2019-04-07T17:16:49.318Z,20.10
2019-04-07T17:19:19.915Z,20.20
2019-04-07T17:21:50.143Z,20.40
2019-04-07T17:24:19.706Z,20.40
2019-04-07T17:26:49.771Z,20.40
2019-04-07T17:29:21.313Z,20.30
2019-04-07T17:31:50.834Z,20.30
2019-04-07T17:34:20.496Z,20.30
2019-04-07T17:36:55.518Z,20.30
2019-04-07T17:39:26.102Z,20.10
2019-04-07T17:41:57.350Z,19.80
2019-04-07T17:44:28.631Z,19.60
2019-04-07T17:47:15.817Z,19.50
2019-04-07T17:50:04.178Z,19.60
2019-04-07T17:52:53.606Z,19.60
2019-04-07T17:55:42.158Z,19.60
2019-04-07T17:58:15.992Z,19.60
2019-04-07T18:01:06.227Z,19.50
2019-04-07T18:03:45.350Z,19.50
2019-04-07T18:06:32.371Z,19.50
2019-04-07T18:09:20.914Z,19.40
2019-04-07T18:12:12.749Z,19.30
2019-04-07T18:14:57.735Z,19.10
2019-04-07T18:17:48.397Z,18.70
2019-04-07T18:20:23.945Z,18.60
2019-04-07T18:22:58.158Z,18.60
2019-04-07T18:25:33.425Z,18.70
2019-04-07T18:28:10.409Z,18.50
2019-04-07T18:30:51.575Z,18.60
2019-04-07T18:33:38.755Z,18.50
2019-04-07T18:36:25.691Z,18.60
2019-04-07T18:39:06.561Z,18.50
2019-04-07T18:41:44.696Z,18.40
2019-04-07T18:44:25.128Z,18.30
2019-04-07T18:46:57.117Z,18.20
2019-04-07T18:49:31.432Z,18.30
2019-04-07T18:52:01.550Z,18.30
2019-04-07T18:54:42.303Z,18.30
2019-04-07T18:57:14.026Z,18.30
2019-04-07T19:00:04.268Z,18.40
2019-04-07T19:02:50.419Z,18.20
2019-04-07T19:05:24.218Z,18.20
2019-04-07T19:08:00.864Z,18.20
2019-04-07T19:10:35.595Z,18.20
2019-04-07T19:13:17.087Z,18.20
2019-04-07T19:15:47.858Z,18.10
2019-04-07T19:18:32.554Z,18.10
2019-04-07T19:21:03.538Z,18.00
2019-04-07T19:23:34.632Z,17.90
2019-04-07T19:26:08.093Z,17.90
2019-04-07T19:28:39.012Z,17.80
2019-04-07T19:31:16.263Z,17.80
2019-04-07T19:33:45.494Z,17.70
2019-04-07T19:36:18.057Z,17.70
2019-04-07T19:38:54.950Z,17.60
2019-04-07T19:41:41.083Z,17.50
2019-04-07T19:44:15.392Z,17.30
2019-04-07T19:47:01.515Z,17.30
2019-04-07T19:49:36.789Z,17.50
2019-04-07T19:52:25.024Z,17.60
2019-04-07T19:55:02.179Z,17.70
2019-04-07T19:57:36.488Z,17.60
2019-04-07T20:00:16.170Z,17.60
2019-04-07T20:02:57.394Z,17.70
2019-04-07T20:05:40.863Z,17.70
2019-04-07T20:08:20.220Z,17.60
2019-04-07T20:10:59.801Z,17.50
2019-04-07T20:13:36.562Z,17.40
2019-04-07T20:16:12.905Z,17.40
2019-04-07T20:18:44.756Z,17.50
2019-04-07T20:21:17.583Z,17.50
2019-04-07T20:24:01.473Z,17.40
2019-04-07T20:26:46.447Z,17.30
2019-04-07T20:29:17.358Z,17.20
2019-04-07T20:31:54.709Z,17.10
2019-04-07T20:34:28.687Z,16.90
2019-04-07T20:37:05.361Z,16.80
2019-04-07T20:39:36.714Z,16.80
2019-04-07T20:42:13.456Z,16.60
2019-04-07T20:44:43.376Z,16.70
2019-04-07T20:47:17.604Z,16.50
2019-04-07T20:49:51.680Z,16.40
2019-04-07T20:52:34.911Z,16.40
2019-04-07T20:55:13.581Z,16.30
2019-04-07T20:57:54.031Z,16.20
2019-04-07T21:00:54.205Z,16.20
2019-04-07T21:03:30.458Z,16.10
2019-04-07T21:06:04.543Z,16.00
2019-04-07T21:08:35.654Z,15.70
2019-04-07T21:11:07.767Z,15.50
2019-04-07T21:13:47.181Z,15.40
2019-04-07T21:16:34.372Z,15.60
2019-04-07T21:19:11.321Z,15.60
2019-04-07T21:21:46.487Z,15.50
2019-04-07T21:24:21.144Z,15.40
2019-04-07T21:27:02.473Z,15.40
2019-04-07T21:29:49.359Z,15.30
2019-04-07T21:32:23.403Z,15.40
2019-04-07T21:35:10.884Z,15.30
2019-04-07T21:41:00.178Z,15.30
2019-04-07T21:43:37.052Z,15.30
2019-04-07T21:46:22.689Z,15.20
2019-04-07T21:48:58.039Z,15.30
2019-04-07T21:51:29.042Z,15.20
2019-04-07T21:54:04.191Z,15.10
2019-04-07T21:56:47.671Z,15.20
2019-04-07T21:59:35.392Z,15.20
2019-04-07T22:02:21.978Z,15.20
2019-04-07T22:05:09.722Z,15.10
2019-04-07T22:07:46.886Z,15.10
2019-04-07T22:10:18.746Z,15.10
2019-04-07T22:12:48.194Z,14.90
2019-04-07T22:15:17.574Z,14.70
2019-04-07T22:17:47.806Z,14.60
2019-04-07T22:20:20.088Z,14.60
2019-04-07T22:22:49.401Z,14.70
2019-04-07T22:25:22.685Z,14.70
2019-04-07T22:27:54.446Z,14.70
2019-04-07T22:30:24.139Z,14.70
2019-04-07T22:32:55.546Z,14.70
2019-04-07T22:35:25.021Z,14.60
2019-04-07T22:37:54.756Z,14.50
2019-04-07T22:40:26.477Z,14.50
2019-04-07T22:42:56.248Z,14.50
2019-04-07T22:45:28.613Z,14.50
2019-04-07T22:47:57.194Z,14.40
2019-04-07T22:50:28.431Z,14.30
2019-04-07T22:52:57.896Z,14.20
2019-04-07T22:55:27.266Z,14.20
2019-04-07T22:57:56.602Z,14.10
2019-04-07T23:00:26.895Z,14.30
2019-04-07T23:02:56.426Z,14.30
2019-04-07T23:05:25.765Z,14.20
2019-04-07T23:07:55.139Z,14.20
2019-04-07T23:10:25.159Z,14.20
2019-04-07T23:12:55.239Z,14.10
2019-04-07T23:15:37.330Z,14.10
2019-04-07T23:17:55.880Z,14.10
2019-04-07T23:20:25.233Z,14.10
2019-04-07T23:22:54.547Z,14.00
2019-04-07T23:25:24.831Z,13.90
2019-04-07T23:27:54.331Z,13.90
2019-04-07T23:30:26.465Z,13.90
2019-04-07T23:32:55.835Z,13.90
2019-04-07T23:35:25.139Z,14.00
2019-04-07T23:37:55.255Z,14.00
2019-04-07T23:40:24.779Z,14.00
2019-04-07T23:42:55.031Z,14.10
2019-04-07T23:45:25.315Z,14.00
2019-04-07T23:48:02.982Z,14.00
2019-04-07T23:50:32.303Z,14.10
2019-04-07T23:53:21.412Z,14.10
2019-04-07T23:55:50.852Z,14.20
2019-04-07T23:58:20.914Z,14.20
